Connecticut State Prison, Connecticut
Current Conditions -  °F | °C
As of 4:51 AM on Saturday 29 Nov 2014 (Local Time) from KBDL Reporting Station
Few Clouds Few Clouds  
Wind Chill: 16°   Ceiling: Unl
Heat Index: 22°   Visibility: 10mi
Dew Point: 12°   Wind: 5mph
Humidity: 66%   Direction: 240°WSW
Pressure: 30.28"   Gusts: NA
Location:  41.9956°N, 72.451°W
Report Text: KBDL 290951Z 24004KT 10SM FEW110 M06/M11 A3028 RMK AO2 SLP257 T10561111
Loading
Personal Weather Stations






























Interactive Weather Map New forecast layout! Learn more

10-Day Weather Forecast

Advertisements
Track Severe Weather on mobile